This is the latest recevied weather packets stored in our database for station/object N5GMJ. If no packets are shown the sender has not sent any weather packets the latest 10 day(s).
| Time | Temp. | Humidity | Pressure | Rain* | Wind** | Luminosity | Snow |
|---|---|---|---|---|---|---|---|
| 1777728268 | 13.89° C | 85% | 1023.4 hPa | 0 mm | - | - | - |
| 1777727965 | 13.33° C | 85% | 1023.4 hPa | 0 mm | - | - | - |
| 1777727662 | 13.89° C | 82% | 1023.3 hPa | 0 mm | - | - | - |
| 1777727359 | 12.22° C | 87% | 1023.2 hPa | 0 mm | - | - | - |
| 1777727056 | 12.22° C | 88% | 1023.3 hPa | 0 mm | - | - | - |
| 1777726754 | 12.22° C | 88% | 1023.2 hPa | 0 mm | - | - | - |
| 1777726451 | 11.67° C | 87% | 1023 hPa | 0 mm | - | - | - |
| 1777726147 | 12.22° C | 87% | 1023.1 hPa | 0 mm | - | - | - |
| 1777725844 | 11.67° C | 88% | 1023 hPa | 0 mm | - | - | - |
| 1777725542 | 11.11° C | 90% | 1022.9 hPa | 0 mm | - | - | - |
| 1777725239 | 10.56° C | 91% | 1022.8 hPa | 0 mm | - | - | - |
| 1777724936 | 10.56° C | 92% | 1022.9 hPa | 0 mm | - | - | - |
| 1777724632 | 10° C | 92% | 1022.8 hPa | 0 mm | - | - | - |
| 1777724330 | 10° C | 93% | 1022.5 hPa | 0 mm | - | - | - |
| 1777724028 | 10° C | 93% | 1022.5 hPa | 0 mm | - | - | - |
| 1777723725 | 9.44° C | 94% | 1022.4 hPa | 0 mm | - | - | - |
| 1777723421 | 9.44° C | 94% | 1022.4 hPa | 0 mm | - | - | - |
| 1777723118 | 8.89° C | 94% | 1022.4 hPa | 0 mm | - | - | - |
| 1777722815 | 8.89° C | 94% | 1022.2 hPa | 0 mm | - | - | - |
| 1777722512 | 8.33° C | 94% | 1022 hPa | 0 mm | - | - | - |
| 1777722209 | 8.33° C | 94% | 1021.9 hPa | 0 mm | - | - | - |
| 1777721906 | 8.89° C | 94% | 1021.9 hPa | 0 mm | - | - | - |
| 1777721603 | 8.89° C | 94% | 1021.7 hPa | 0 mm | - | - | - |
| 1777721302 | 8.33° C | 94% | 1021.8 hPa | 0 mm | - | - | - |
| 1777720998 | 8.89° C | 93% | 1021.7 hPa | 0 mm | - | - | - |
* Rain latest hour (hover to see other rain measurements)
** Current wind speed in m/s (hover to see current wind gust speed)